AUA18Z LOWW-EDDM
Flight info
| Callsign | AUA18Z |
|---|---|
| Flight time | 0h 39m |
| Altitude | 28000 |
| Route | SOVIL DCT SITNI DCT BAGSI DCT MATIG DCT AMADI Q113 NAPSA NAPSA1B |
| Aircraft | A320/M-SDE3FGHIRWY/LB1 |
Departure
| Time | 2026-05-04 19:16 |
|---|---|
| Airport | Vienna International Airport (LOWW) |
Arrival
| Time | 2026-05-04 19:55 |
|---|---|
| Airport | Munich Airport (EDDM) |
| Time | Latitude | Longitude | Altitude | Speed | Heading |
|---|---|---|---|---|---|
| 2026-05-04 18:41 | 48.11933 | 16.56659 | 610 ft | 0 kts | 206° |
| 2026-05-04 19:01 | 48.11938 | 16.56662 | 628 ft | 3 kts | 206° |
| 2026-05-04 19:01 | 48.11962 | 16.56680 | 625 ft | 4 kts | 206° |
| 2026-05-04 19:01 | 48.11986 | 16.56699 | 616 ft | 4 kts | 206° |
| 2026-05-04 19:01 | 48.12010 | 16.56717 | 621 ft | 4 kts | 206° |
| 2026-05-04 19:02 | 48.12014 | 16.56721 | 621 ft | 4 kts | 199° |
| 2026-05-04 19:02 | 48.11992 | 16.56729 | 620 ft | 4 kts | 146° |
| 2026-05-04 19:02 | 48.11981 | 16.56756 | 615 ft | 1 kts | 116° |
| 2026-05-04 19:05 | 48.11967 | 16.56798 | 611 ft | 9 kts | 116° |
| 2026-05-04 19:05 | 48.11935 | 16.56896 | 611 ft | 11 kts | 116° |
| 2026-05-04 19:06 | 48.11900 | 16.57004 | 614 ft | 12 kts | 116° |
| 2026-05-04 19:06 | 48.11860 | 16.57126 | 616 ft | 14 kts | 114° |
| 2026-05-04 19:06 | 48.11836 | 16.57270 | 621 ft | 15 kts | 115° |
| 2026-05-04 19:06 | 48.11758 | 16.57367 | 620 ft | 16 kts | 164° |
| 2026-05-04 19:07 | 48.11646 | 16.57413 | 618 ft | 17 kts | 164° |
| 2026-05-04 19:07 | 48.11530 | 16.57461 | 617 ft | 14 kts | 172° |
| 2026-05-04 19:07 | 48.11434 | 16.57419 | 620 ft | 15 kts | 205° |
| 2026-05-04 19:07 | 48.11333 | 16.57345 | 615 ft | 17 kts | 206° |
| 2026-05-04 19:08 | 48.11237 | 16.57268 | 618 ft | 12 kts | 227° |
| 2026-05-04 19:08 | 48.11245 | 16.57164 | 618 ft | 10 kts | 295° |
| 2026-05-04 19:08 | 48.11284 | 16.57046 | 614 ft | 16 kts | 296° |
| 2026-05-04 19:08 | 48.11336 | 16.56885 | 616 ft | 17 kts | 296° |
| 2026-05-04 19:09 | 48.11385 | 16.56734 | 609 ft | 16 kts | 295° |
| 2026-05-04 19:09 | 48.11441 | 16.56560 | 616 ft | 21 kts | 296° |
| 2026-05-04 19:09 | 48.11503 | 16.56372 | 612 ft | 19 kts | 296° |
| 2026-05-04 19:09 | 48.11559 | 16.56202 | 609 ft | 17 kts | 296° |
| 2026-05-04 19:10 | 48.11609 | 16.56047 | 616 ft | 16 kts | 296° |
| 2026-05-04 19:10 | 48.11657 | 16.55901 | 613 ft | 18 kts | 296° |
| 2026-05-04 19:10 | 48.11721 | 16.55704 | 619 ft | 21 kts | 296° |
| 2026-05-04 19:10 | 48.11781 | 16.55519 | 612 ft | 19 kts | 296° |
| 2026-05-04 19:11 | 48.11836 | 16.55351 | 618 ft | 17 kts | 296° |
| 2026-05-04 19:11 | 48.11887 | 16.55193 | 612 ft | 18 kts | 296° |
| 2026-05-04 19:11 | 48.11954 | 16.54989 | 611 ft | 25 kts | 296° |
| 2026-05-04 19:11 | 48.12032 | 16.54748 | 612 ft | 26 kts | 296° |
| 2026-05-04 19:12 | 48.12109 | 16.54513 | 618 ft | 24 kts | 296° |
| 2026-05-04 19:12 | 48.12227 | 16.54147 | 620 ft | 17 kts | 290° |
| 2026-05-04 19:12 | 48.12205 | 16.54020 | 619 ft | 9 kts | 226° |
| 2026-05-04 19:13 | 48.12202 | 16.54015 | 620 ft | 0 kts | 224° |
| 2026-05-04 19:13 | 48.12191 | 16.54001 | 614 ft | 6 kts | 220° |
| 2026-05-04 19:14 | 48.12116 | 16.53976 | 609 ft | 11 kts | 184° |
| 2026-05-04 19:14 | 48.12063 | 16.54010 | 618 ft | 5 kts | 116° |
| 2026-05-04 19:14 | 48.12061 | 16.54014 | 609 ft | 0 kts | 116° |
| 2026-05-04 19:15 | 48.12049 | 16.54052 | 613 ft | 16 kts | 116° |
| 2026-05-04 19:15 | 48.11884 | 16.54556 | 611 ft | 88 kts | 116° |
| 2026-05-04 19:15 | 48.11527 | 16.55653 | 621 ft | 144 kts | 116° |
| 2026-05-04 19:16 | 48.11068 | 16.57068 | 1076 ft | 151 kts | 118° |
| 2026-05-04 19:16 | 48.10600 | 16.58489 | 1709 ft | 153 kts | 122° |
| 2026-05-04 19:16 | 48.10099 | 16.59972 | 2169 ft | 170 kts | 125° |
| 2026-05-04 19:16 | 48.09525 | 16.61647 | 2520 ft | 191 kts | 124° |
| 2026-05-04 19:17 | 48.08907 | 16.63485 | 3011 ft | 202 kts | 123° |
| 2026-05-04 19:17 | 48.08267 | 16.65410 | 3561 ft | 210 kts | 123° |
| 2026-05-04 19:17 | 48.07616 | 16.67395 | 4185 ft | 216 kts | 122° |
| 2026-05-04 19:17 | 48.06911 | 16.69404 | 4789 ft | 218 kts | 132° |
| 2026-05-04 19:18 | 48.05743 | 16.70756 | 5341 ft | 213 kts | 164° |
| 2026-05-04 19:18 | 48.04250 | 16.70974 | 5713 ft | 228 kts | 192° |
| 2026-05-04 19:18 | 48.02628 | 16.70415 | 6114 ft | 251 kts | 195° |
| 2026-05-04 19:18 | 48.00891 | 16.69793 | 6751 ft | 262 kts | 194° |
| 2026-05-04 19:19 | 47.99088 | 16.69156 | 7513 ft | 268 kts | 194° |
| 2026-05-04 19:19 | 47.97269 | 16.68475 | 8379 ft | 271 kts | 200° |
| 2026-05-04 19:19 | 47.95664 | 16.66996 | 9172 ft | 276 kts | 224° |
| 2026-05-04 19:19 | 47.94626 | 16.64574 | 9993 ft | 283 kts | 249° |
| 2026-05-04 19:20 | 47.94237 | 16.61643 | 10594 ft | 297 kts | 259° |
| 2026-05-04 19:20 | 47.93919 | 16.58481 | 10863 ft | 320 kts | 259° |
| 2026-05-04 19:20 | 47.93578 | 16.55182 | 11369 ft | 331 kts | 259° |
| 2026-05-04 19:20 | 47.93222 | 16.51762 | 12097 ft | 336 kts | 259° |
| 2026-05-04 19:21 | 47.92862 | 16.48307 | 12854 ft | 339 kts | 260° |
| 2026-05-04 19:21 | 47.92739 | 16.45924 | 13359 ft | 343 kts | 268° |
| 2026-05-04 19:21 | 47.92996 | 16.42111 | 14103 ft | 350 kts | 277° |
| 2026-05-04 19:21 | 47.93425 | 16.38527 | 14759 ft | 353 kts | 277° |
| 2026-05-04 19:22 | 47.93855 | 16.34902 | 15413 ft | 356 kts | 277° |
| 2026-05-04 19:22 | 47.94287 | 16.31252 | 16062 ft | 359 kts | 277° |
| 2026-05-04 19:22 | 47.94718 | 16.27613 | 16704 ft | 362 kts | 278° |
| 2026-05-04 19:22 | 47.95158 | 16.23856 | 17368 ft | 365 kts | 278° |
| 2026-05-04 19:23 | 47.95595 | 16.20109 | 18016 ft | 368 kts | 278° |
| 2026-05-04 19:23 | 47.96033 | 16.16334 | 18592 ft | 371 kts | 278° |
| 2026-05-04 19:23 | 47.96474 | 16.12525 | 19140 ft | 374 kts | 278° |
| 2026-05-04 19:23 | 47.96909 | 16.08739 | 19688 ft | 377 kts | 278° |
| 2026-05-04 19:24 | 47.97353 | 16.04868 | 20249 ft | 380 kts | 278° |
| 2026-05-04 19:24 | 47.97800 | 16.00963 | 20803 ft | 383 kts | 278° |
| 2026-05-04 19:24 | 47.98249 | 15.97025 | 21353 ft | 386 kts | 278° |
| 2026-05-04 19:24 | 47.98698 | 15.93060 | 21906 ft | 390 kts | 278° |
| 2026-05-04 19:25 | 47.99152 | 15.89051 | 22463 ft | 392 kts | 279° |
| 2026-05-04 19:25 | 47.99609 | 15.85025 | 23014 ft | 395 kts | 279° |
| 2026-05-04 19:25 | 48.00067 | 15.80966 | 23519 ft | 398 kts | 279° |
| 2026-05-04 19:25 | 48.00527 | 15.76883 | 23972 ft | 400 kts | 279° |
| 2026-05-04 19:26 | 48.00987 | 15.72773 | 24398 ft | 402 kts | 279° |
| 2026-05-04 19:26 | 48.01450 | 15.68655 | 24835 ft | 403 kts | 279° |
| 2026-05-04 19:26 | 48.01915 | 15.64510 | 25198 ft | 406 kts | 279° |
| 2026-05-04 19:26 | 48.02380 | 15.60337 | 25591 ft | 409 kts | 279° |
| 2026-05-04 19:27 | 48.02846 | 15.56132 | 25969 ft | 411 kts | 279° |
| 2026-05-04 19:27 | 48.03310 | 15.51899 | 26353 ft | 414 kts | 279° |
| 2026-05-04 19:27 | 48.03766 | 15.47644 | 26729 ft | 416 kts | 278° |
| 2026-05-04 19:27 | 48.04181 | 15.43354 | 27106 ft | 418 kts | 277° |
| 2026-05-04 19:28 | 48.04565 | 15.39039 | 27472 ft | 420 kts | 276° |
| 2026-05-04 19:28 | 48.04722 | 15.34672 | 27814 ft | 422 kts | 270° |
| 2026-05-04 19:28 | 48.04760 | 15.30291 | 27910 ft | 418 kts | 270° |
| 2026-05-04 19:28 | 48.04815 | 15.26019 | 27929 ft | 405 kts | 270° |
| 2026-05-04 19:29 | 48.04880 | 15.21844 | 27928 ft | 400 kts | 271° |
| 2026-05-04 19:29 | 48.04949 | 15.17696 | 27929 ft | 399 kts | 271° |
| 2026-05-04 19:29 | 48.05018 | 15.13551 | 27928 ft | 399 kts | 271° |
| 2026-05-04 19:29 | 48.05081 | 15.09390 | 27921 ft | 401 kts | 271° |
| 2026-05-04 19:30 | 48.05143 | 15.05237 | 27920 ft | 400 kts | 271° |
| 2026-05-04 19:30 | 48.05202 | 15.01084 | 27857 ft | 399 kts | 270° |
| 2026-05-04 19:30 | 48.05259 | 14.96931 | 27135 ft | 401 kts | 270° |
| 2026-05-04 19:30 | 48.05311 | 14.92755 | 26331 ft | 404 kts | 270° |
| 2026-05-04 19:31 | 48.05359 | 14.88550 | 25568 ft | 406 kts | 270° |
| 2026-05-04 19:31 | 48.05407 | 14.84320 | 24860 ft | 407 kts | 270° |
| 2026-05-04 19:31 | 48.05453 | 14.80169 | 24726 ft | 392 kts | 270° |
| 2026-05-04 19:31 | 48.05493 | 14.76146 | 24504 ft | 382 kts | 270° |
| 2026-05-04 19:32 | 48.05526 | 14.72209 | 24120 ft | 377 kts | 270° |
| 2026-05-04 19:32 | 48.05555 | 14.68304 | 23904 ft | 375 kts | 270° |
| 2026-05-04 19:32 | 48.05582 | 14.64408 | 23896 ft | 376 kts | 270° |
| 2026-05-04 19:32 | 48.05607 | 14.60490 | 23903 ft | 377 kts | 270° |
| 2026-05-04 19:33 | 48.05632 | 14.56632 | 23893 ft | 377 kts | 269° |
| 2026-05-04 19:33 | 48.05656 | 14.52710 | 23895 ft | 377 kts | 269° |
| 2026-05-04 19:33 | 48.05681 | 14.48790 | 23895 ft | 377 kts | 269° |
| 2026-05-04 19:33 | 48.05704 | 14.44870 | 23895 ft | 377 kts | 269° |
| 2026-05-04 19:34 | 48.05726 | 14.40954 | 23896 ft | 377 kts | 269° |
| 2026-05-04 19:34 | 48.05746 | 14.37032 | 23894 ft | 377 kts | 269° |
| 2026-05-04 19:34 | 48.05764 | 14.33115 | 23894 ft | 377 kts | 269° |
| 2026-05-04 19:34 | 48.05783 | 14.29198 | 23894 ft | 377 kts | 269° |
| 2026-05-04 19:35 | 48.05800 | 14.25275 | 23892 ft | 377 kts | 269° |
| 2026-05-04 19:35 | 48.05814 | 14.21355 | 23894 ft | 377 kts | 269° |
| 2026-05-04 19:35 | 48.05827 | 14.17437 | 23893 ft | 377 kts | 269° |
| 2026-05-04 19:35 | 48.05840 | 14.13512 | 23895 ft | 377 kts | 269° |
| 2026-05-04 19:36 | 48.05852 | 14.09596 | 23894 ft | 377 kts | 269° |
| 2026-05-04 19:36 | 48.05862 | 14.05678 | 23896 ft | 377 kts | 269° |
| 2026-05-04 19:36 | 48.05868 | 14.01760 | 23896 ft | 377 kts | 269° |
| 2026-05-04 19:36 | 48.05873 | 13.97844 | 23896 ft | 377 kts | 269° |
| 2026-05-04 19:37 | 48.05881 | 13.93927 | 23898 ft | 377 kts | 269° |
| 2026-05-04 19:37 | 48.05890 | 13.90012 | 23898 ft | 377 kts | 269° |
| 2026-05-04 19:37 | 48.05897 | 13.86095 | 23898 ft | 377 kts | 269° |
| 2026-05-04 19:37 | 48.05899 | 13.82176 | 23898 ft | 377 kts | 269° |
| 2026-05-04 19:38 | 48.05898 | 13.78257 | 23898 ft | 377 kts | 269° |
| 2026-05-04 19:38 | 48.05894 | 13.74342 | 23898 ft | 377 kts | 269° |
| 2026-05-04 19:38 | 48.05889 | 13.70425 | 23900 ft | 377 kts | 269° |
| 2026-05-04 19:38 | 48.05885 | 13.66511 | 23898 ft | 377 kts | 269° |
| 2026-05-04 19:39 | 48.05877 | 13.62586 | 23898 ft | 377 kts | 269° |
| 2026-05-04 19:39 | 48.05867 | 13.58673 | 23898 ft | 377 kts | 269° |
| 2026-05-04 19:39 | 48.05860 | 13.54754 | 23865 ft | 376 kts | 269° |
| 2026-05-04 19:39 | 48.05929 | 13.50869 | 23439 ft | 373 kts | 272° |
| 2026-05-04 19:40 | 48.06109 | 13.47015 | 22920 ft | 371 kts | 274° |
| 2026-05-04 19:40 | 48.06347 | 13.43190 | 22428 ft | 368 kts | 275° |
| 2026-05-04 19:40 | 48.06599 | 13.39398 | 21953 ft | 365 kts | 275° |
| 2026-05-04 19:40 | 48.06841 | 13.35632 | 21492 ft | 362 kts | 274° |
| 2026-05-04 19:41 | 48.07065 | 13.31897 | 21035 ft | 360 kts | 274° |
| 2026-05-04 19:41 | 48.07269 | 13.28185 | 20594 ft | 357 kts | 273° |
| 2026-05-04 19:41 | 48.07459 | 13.24501 | 20162 ft | 354 kts | 273° |
| 2026-05-04 19:41 | 48.07641 | 13.20892 | 19737 ft | 352 kts | 273° |
| 2026-05-04 19:42 | 48.07825 | 13.17255 | 19316 ft | 349 kts | 272° |
| 2026-05-04 19:42 | 48.08172 | 13.13672 | 18904 ft | 349 kts | 286° |
| 2026-05-04 19:42 | 48.09137 | 13.10349 | 18490 ft | 349 kts | 294° |
| 2026-05-04 19:42 | 48.10225 | 13.07118 | 18055 ft | 347 kts | 295° |
| 2026-05-04 19:43 | 48.11322 | 13.03905 | 17590 ft | 346 kts | 295° |
| 2026-05-04 19:43 | 48.12416 | 13.00714 | 17142 ft | 344 kts | 295° |
| 2026-05-04 19:43 | 48.13508 | 12.97543 | 16668 ft | 343 kts | 295° |
| 2026-05-04 19:43 | 48.14609 | 12.94358 | 16103 ft | 345 kts | 295° |
| 2026-05-04 19:44 | 48.15722 | 12.91154 | 15550 ft | 347 kts | 295° |
| 2026-05-04 19:44 | 48.16844 | 12.87945 | 15027 ft | 349 kts | 295° |
| 2026-05-04 19:44 | 48.17977 | 12.84741 | 14485 ft | 345 kts | 295° |
| 2026-05-04 19:44 | 48.19092 | 12.81629 | 13963 ft | 335 kts | 295° |
| 2026-05-04 19:45 | 48.20204 | 12.78556 | 13418 ft | 337 kts | 295° |
| 2026-05-04 19:45 | 48.21319 | 12.75486 | 12829 ft | 332 kts | 295° |
| 2026-05-04 19:45 | 48.22409 | 12.72485 | 12254 ft | 324 kts | 295° |
| 2026-05-04 19:45 | 48.23478 | 12.69537 | 11704 ft | 320 kts | 295° |
| 2026-05-04 19:46 | 48.24532 | 12.66623 | 11152 ft | 317 kts | 295° |
| 2026-05-04 19:46 | 48.25576 | 12.63722 | 10614 ft | 315 kts | 295° |
| 2026-05-04 19:46 | 48.26617 | 12.60819 | 10102 ft | 315 kts | 295° |
| 2026-05-04 19:46 | 48.27635 | 12.57972 | 9624 ft | 303 kts | 295° |
| 2026-05-04 19:47 | 48.28613 | 12.55238 | 9188 ft | 294 kts | 295° |
| 2026-05-04 19:47 | 48.29576 | 12.52526 | 8748 ft | 294 kts | 295° |
| 2026-05-04 19:47 | 48.30530 | 12.49809 | 8318 ft | 294 kts | 295° |
| 2026-05-04 19:47 | 48.31474 | 12.47098 | 7891 ft | 292 kts | 295° |
| 2026-05-04 19:48 | 48.32398 | 12.44422 | 7480 ft | 285 kts | 295° |
| 2026-05-04 19:48 | 48.33304 | 12.41770 | 7058 ft | 285 kts | 295° |
| 2026-05-04 19:48 | 48.34200 | 12.39121 | 6652 ft | 283 kts | 295° |
| 2026-05-04 19:48 | 48.35082 | 12.36488 | 6272 ft | 279 kts | 295° |
| 2026-05-04 19:49 | 48.35929 | 12.33942 | 5868 ft | 267 kts | 295° |
| 2026-05-04 19:49 | 48.36736 | 12.31491 | 5474 ft | 256 kts | 295° |
| 2026-05-04 19:49 | 48.37499 | 12.29117 | 5092 ft | 249 kts | 292° |
| 2026-05-04 19:49 | 48.37869 | 12.26644 | 4984 ft | 240 kts | 269° |
| 2026-05-04 19:50 | 48.37726 | 12.24128 | 4991 ft | 242 kts | 262° |
| 2026-05-04 19:50 | 48.37542 | 12.21608 | 4988 ft | 243 kts | 262° |
| 2026-05-04 19:50 | 48.37358 | 12.19081 | 4985 ft | 243 kts | 263° |
| 2026-05-04 19:50 | 48.37174 | 12.16557 | 4995 ft | 243 kts | 262° |
| 2026-05-04 19:51 | 48.36989 | 12.14029 | 4995 ft | 243 kts | 262° |
| 2026-05-04 19:51 | 48.36803 | 12.11506 | 5002 ft | 243 kts | 262° |
| 2026-05-04 19:51 | 48.36619 | 12.09001 | 4996 ft | 236 kts | 262° |
| 2026-05-04 19:51 | 48.36442 | 12.06596 | 4813 ft | 226 kts | 262° |
| 2026-05-04 19:52 | 48.36272 | 12.04301 | 4553 ft | 216 kts | 262° |
| 2026-05-04 19:52 | 48.36111 | 12.02133 | 4331 ft | 208 kts | 262° |
| 2026-05-04 19:52 | 48.35953 | 11.99994 | 4004 ft | 198 kts | 263° |
| 2026-05-04 19:52 | 48.35804 | 11.97990 | 3730 ft | 188 kts | 263° |
| 2026-05-04 19:53 | 48.35654 | 11.96031 | 3516 ft | 189 kts | 263° |
| 2026-05-04 19:53 | 48.35503 | 11.94066 | 3263 ft | 187 kts | 263° |
| 2026-05-04 19:53 | 48.35360 | 11.92122 | 3039 ft | 185 kts | 263° |
| 2026-05-04 19:53 | 48.35219 | 11.90230 | 2805 ft | 177 kts | 263° |
| 2026-05-04 19:54 | 48.35081 | 11.88439 | 2534 ft | 168 kts | 264° |
| 2026-05-04 19:54 | 48.34954 | 11.86757 | 2322 ft | 161 kts | 264° |
| 2026-05-04 19:54 | 48.34831 | 11.85116 | 2127 ft | 155 kts | 265° |
| 2026-05-04 19:54 | 48.34712 | 11.83527 | 1927 ft | 151 kts | 264° |
| 2026-05-04 19:55 | 48.34596 | 11.81969 | 1745 ft | 149 kts | 265° |
| 2026-05-04 19:55 | 48.34480 | 11.80438 | 1529 ft | 148 kts | 264° |
| 2026-05-04 19:55 | 48.34371 | 11.79035 | 1485 ft | 116 kts | 263° |
| 2026-05-04 19:55 | 48.34305 | 11.78138 | 1485 ft | 48 kts | 269° |
| 2026-05-04 19:56 | 48.34377 | 11.77781 | 1484 ft | 32 kts | 292° |
| 2026-05-04 19:56 | 48.34446 | 11.77541 | 1479 ft | 20 kts | 293° |
| 2026-05-04 19:56 | 48.34477 | 11.77477 | 1484 ft | 2 kts | 333° |
| 2026-05-04 19:57 | 48.34502 | 11.77458 | 1478 ft | 8 kts | 333° |
| 2026-05-04 19:57 | 48.34550 | 11.77434 | 1484 ft | 7 kts | 353° |
| 2026-05-04 19:57 | 48.34606 | 11.77430 | 1485 ft | 11 kts | 12° |
| 2026-05-04 19:57 | 48.34633 | 11.77514 | 1485 ft | 9 kts | 83° |
| 2026-05-04 19:58 | 48.34643 | 11.77634 | 1485 ft | 15 kts | 83° |
| 2026-05-04 19:58 | 48.34656 | 11.77803 | 1480 ft | 17 kts | 83° |
| 2026-05-04 19:58 | 48.34671 | 11.77992 | 1485 ft | 19 kts | 83° |
| 2026-05-04 19:58 | 48.34686 | 11.78200 | 1480 ft | 21 kts | 83° |
| 2026-05-04 19:59 | 48.34704 | 11.78426 | 1485 ft | 23 kts | 83° |
| 2026-05-04 19:59 | 48.34723 | 11.78669 | 1485 ft | 24 kts | 83° |
| 2026-05-04 19:59 | 48.34738 | 11.78866 | 1475 ft | 15 kts | 83° |
| 2026-05-04 19:59 | 48.34750 | 11.79028 | 1485 ft | 18 kts | 83° |
| 2026-05-04 20:00 | 48.34766 | 11.79226 | 1485 ft | 20 kts | 84° |
| 2026-05-04 20:00 | 48.34778 | 11.79389 | 1482 ft | 11 kts | 83° |
| 2026-05-04 20:00 | 48.34784 | 11.79463 | 1473 ft | 6 kts | 83° |
| 2026-05-04 20:00 | 48.34787 | 11.79505 | 1481 ft | 6 kts | 83° |
| 2026-05-04 20:01 | 48.34828 | 11.79559 | 1485 ft | 13 kts | 7° |
| 2026-05-04 20:01 | 48.34922 | 11.79546 | 1481 ft | 14 kts | 353° |
| 2026-05-04 20:01 | 48.34986 | 11.79536 | 1476 ft | 9 kts | 351° |
| 2026-05-04 20:01 | 48.35062 | 11.79530 | 1481 ft | 12 kts | 16° |
| 2026-05-04 20:02 | 48.35096 | 11.79640 | 1485 ft | 12 kts | 83° |
| 2026-05-04 20:02 | 48.35106 | 11.79761 | 1485 ft | 11 kts | 83° |
| 2026-05-04 20:02 | 48.35114 | 11.79871 | 1474 ft | 11 kts | 83° |
| 2026-05-04 20:02 | 48.35123 | 11.79986 | 1483 ft | 11 kts | 83° |
| 2026-05-04 20:03 | 48.35133 | 11.80120 | 1480 ft | 12 kts | 82° |
| 2026-05-04 20:03 | 48.35156 | 11.80192 | 1481 ft | 7 kts | 19° |
| 2026-05-04 20:03 | 48.35198 | 11.80187 | 1481 ft | 6 kts | 354° |
| 2026-05-04 20:03 | 48.35246 | 11.80179 | 1476 ft | 8 kts | 353° |
| 2026-05-04 20:04 | 48.35311 | 11.80168 | 1480 ft | 11 kts | 354° |
| 2026-05-04 20:04 | 48.35383 | 11.80153 | 1485 ft | 10 kts | 345° |
| 2026-05-04 20:04 | 48.35451 | 11.80133 | 1482 ft | 10 kts | 353° |
| 2026-05-04 20:04 | 48.35518 | 11.80121 | 1485 ft | 10 kts | 353° |
| 2026-05-04 20:05 | 48.35587 | 11.80110 | 1474 ft | 10 kts | 353° |
| 2026-05-04 20:05 | 48.35659 | 11.80098 | 1483 ft | 10 kts | 353° |
| 2026-05-04 20:05 | 48.35714 | 11.80047 | 1480 ft | 9 kts | 289° |
| 2026-05-04 20:05 | 48.35711 | 11.79979 | 1482 ft | 3 kts | 263° |
| 2026-05-04 20:06 | 48.35710 | 11.79963 | 1485 ft | 0 kts | 263° |
| 2026-05-04 20:06 | 48.35710 | 11.79961 | 1485 ft | 0 kts | 263° |